Dorrance, Kansas
Current Conditions -  °F | °C
As of 7:53 PM on Friday 28 Nov 2014 (Local Time) from KRSL Reporting Station
Clear Clear  
Wind Chill: 50°   Ceiling: Unl
Heat Index: 50°   Visibility: 10mi
Dew Point: 30°   Wind: 12mph
Humidity: 46%   Direction: 190°S
Pressure: 29.73"   Gusts: NA
Location:  38.85°N, 98.59°W
Report Text: KRSL 290153Z AUTO 19010KT 10SM CLR 10/M01 A2973 RMK AO2 SLP075 T01001011
Loading
Personal Weather Stations






























Interactive Weather Map New forecast layout! Learn more

10-Day Weather Forecast

Advertisements
Track Severe Weather on mobile